Marshall Army Air Field
KFRI : now visible

Airfield :











YOU CAN JOIN US ON...

 
LOGIN :

Register | Disclaimer

   EN    FR    IT 

 









Legend :    VFR   Marginal VFR   IFR   Intensive IFR   Very Intensive IFR
Visi :
Ceiling :
>= 8 km
>= 3000ft
5 to 8 km
1000 to 3000 ft
1500m to 5 km
500 to 1000 ft
800 to 1500m
200 to 500 ft
< 800m
< 200 ft
Symbols :   Thunderstorms  Fog  Heavy snow  Heavy precipitations  Wind > 20 kt






- Airport Elevation : 1065 ft


KFRI - Marshall Army Air Field

CURRENT METAR :
  • 220356Z AUTO 01010KT 10SM OVC021 03/M02 A3020 RMK AO2 SLP232 T00251024

EXPIRED METARs :
  • 220256Z AUTO 02006KT 10SM OVC021 03/M02 A3023 RMK AO2 SLP243 T00291018 53013
  • 220156Z AUTO 01008KT 10SM OVC022 03/M02 A3020 RMK AO2 SLP232 T00301019

TAF AMD TAF KFRI
Valid from the 22 at 00:00 until the 23 at 03:00 UTC


220025Z 2200/2303 35012KT 9999 BKN020 620203 QNH3008INS
BECMG 2204/2205 01012KT 9999 SCT020 BKN080 620807 QNH3015INS
BECMG 2211/2212 01009KT 9999 BKN020 OVC080 620207 QNH3020INS
BECMG 2217/2218 03009KT 9000 -SN OVC015 650159 QNH3013INS
BECMG 2223/2224 VRB06KT 9999 NSW OVC010 650105 QNH3010INS TX07/2200Z TN00/2221Z



MET'MAP, your aeronautical weather chart ! - Copyright ORBIFLY December 2007 - Disclaimer

ORBIFLY MET'MAP TEAM :

Programming & Development : Alexandra Zaïnal
Concept & Development : Baudouin d'Aumeries
Co-Development & Prog : Marc-Olivier Méhu
Technical & hardware support : Manuel Goepfert

Contact : metmap@orbifly.com




SOURCES & CREDITS :

   NOAA       Earth
Advisory